Terminal Aerodrome Forecast
Issued by NWS

Home | Current Version | Previous Version | Text Only | Print | Product List | Glossary Off
Versions: 1 2 3 4 5 6 7 8 9 10 11 12 13 14 15

000
FTUS43 KICT 261729
TAFCNU
TAF
KCNU 261729Z 2618/2718 18015G22KT P6SM SCT020 BKN025
     FM270100 18006KT P6SM VCSH BKN015
     FM270900 33015G21KT P6SM SCT020 BKN035
     FM271200 33015G22KT P6SM SCT020 BKN080=

USA.gov is the U.S. government's official web portal to all federal, state and local government web resources and services.